Share

Seretse Khama, Botswana

Sir Seretse Khama International (FBSK) Elev 3297 ft | 24.56 °S, 25.92 °E | Change Station

Current weather conditions updated 40 minutes ago

Clear
Clear
54 °F
Feels Like 54 °F
N
1
Wind Variable Wind from Variable
Sunrise 6:32 AM
Sunset 5:58 PM
Moon Waning Gibbous

Today is forecast to be nearly the same temperature as yesterday.

Pressure 30.24 in
Visibility 4.3 miles
Clouds
Dew Point 52 °F
Humidity 94%
Rainfall 0.00 in
Snow Depth Not available.
UV Not available.
Pollen Not available.
Air Quality Not available.
Flu Activity Not available.
METAR FBSK 190100Z VRB01KT 7000 NSC 12/11 Q1024 NOSIG

More Conditions Fewer Conditions

Pressure 30.24 in
Visibility 4.3 miles
Clouds
Dew Point 52 °F
Humidity 94%
Rainfall 0.00 in
Snow Depth Not available.
UV Not available.
Pollen Not available.
Air Quality Not available.
Flu Activity Not available.
METAR FBSK 190100Z VRB01KT 7000 NSC 12/11 Q1024 NOSIG

More Conditions Fewer Conditions

10-Day Weather Forecast

Almanac

Astronomy

Apr. 19, 2014 Rise Set
Actual Time 6:32 AM CAT 5:58 PM CAT
Civil Twilight 6:09 AM CAT 6:21 PM CAT
Nautical Twilight 5:42 AM CAT 6:47 PM CAT
Astronomical Twilight 5:16 AM CAT 7:14 PM CAT
Moon 9:35 PM CAT 10:19 AM CAT
Length of Visible Light 12h 12m
Length of Day
11h 25m
Tomorrow will be 1m 18s shorter.
Waning Gibbous, 84% of the Moon is Illuminated
Apr 18
Waning Gibbous
Apr 22
Last Quarter
Apr 29
New
May 6
First Quarter
May 14
Full

Yesterday's Extremes

Country Highs Country Lows

Community

  • Cloudy spring view
    Cloudy spring view
  • Old barn
    Old barn
  • What's for Lunch?
    What's for Lunch?
  • SUNRISE THROUGH THE TREES.
    SUNRISE THROUGH THE TREES.
  • Dog Wood Blossoms
    Dog Wood Blossoms

WunderPhotos

Upload Photos

1,702,570 photos uploaded!

Nearby

Snow Depth

Not available.

Coastal Water Temperatures

Place Temperature
No Stations Reporting

Earthquake Activity

City Distance Mag. Time & Date
No recent earthquake activity has been reported nearby.
Minimum magnitude displayed is 2.5.

Nearby Weather Stations

There are no personal weather stations in this area.

What do you think?

We're not finished. Please let us know what you like, what you don't like, and what you are still missing.